Time;durP1;ratioP1;P1;durP2;ratioP2;P2;SDS_P1;SDS_P2;PMS_P1;PMS_P2;Temp;Humidity;BMP_temperature;BMP_pressure;BME280_temperature;BME280_humidity;BME280_pressure;Samples;Min_cycle;Max_cycle;Signal;HPM_P1;HPM_P2
2021/12/17 00:04:36;;;;;;;2.58;1.02;;;;;;;;;;4950907;28;20055;-66
2021/12/17 00:07:12;;;;;;;2.22;0.75;;;;;;;;;;4948224;28;20058;-65
2021/12/17 00:09:45;;;;;;;3.95;0.90;;;;;;;;;;4952968;28;20066;-65
2021/12/17 00:12:19;;;;;;;3.58;1.05;;;;;;;;;;4989766;28;20054;-65
2021/12/17 00:14:51;;;;;;;3.30;1.00;;;;;;;;;;4986960;28;20076;-65
2021/12/17 00:17:27;;;;;;;1.63;1.00;;;;;;;;;;4983445;28;20062;-66
2021/12/17 00:53:44;;;;;;;4.30;1.00;;;;;;;;;;4939713;28;20078;-66
2021/12/17 00:56:14;;;;;;;5.65;1.20;;;;;;;;;;4950010;28;20596;-65
2021/12/17 00:58:45;;;;;;;6.47;1.00;;;;;;;;;;4915643;29;20043;-66
2021/12/17 01:01:17;;;;;;;2.45;1.00;;;;;;;;;;4912128;29;20056;-66
2021/12/17 01:03:49;;;;;;;3.47;0.90;;;;;;;;;;4927033;29;20460;-66
2021/12/17 01:06:20;;;;;;;2.97;0.93;;;;;;;;;;4931231;29;20047;-65
2021/12/17 01:08:51;;;;;;;2.35;1.00;;;;;;;;;;4888065;29;20066;-68
2021/12/17 01:11:25;;;;;;;3.53;1.02;;;;;;;;;;4912176;29;20052;-67
2021/12/17 01:14:18;;;;;;;5.90;1.20;;;;;;;;;;4909119;29;20052;-66
2021/12/17 01:17:19;;;;;;;1.60;1.05;;;;;;;;;;4911176;29;20052;-66
2021/12/17 01:23:28;;;;;;;;;;;;;;;;;;;;;
2021/12/17 01:35:39;;;;;;;3.22;1.20;;;;;;;;;;4819553;29;20062;-66
2021/12/17 01:41:45;;;;;;;2.55;1.10;;;;;;;;;;4813597;29;20519;-66
2021/12/17 01:44:10;;;;;;;5.25;1.23;;;;;;;;;;4790470;29;20059;-66
2021/12/17 01:46:44;;;;;;;3.50;0.93;;;;;;;;;;4782608;29;20063;-66
2021/12/17 02:00:28;;;;;;;4.13;1.67;;;;;;;;;;4795723;29;20593;-68
2021/12/17 02:03:00;;;;;;;12.07;1.30;;;;;;;;;;4813517;29;20045;-67
2021/12/17 02:05:34;;;;;;;3.97;1.60;;;;;;;;;;4815368;29;20423;-66
2021/12/17 02:08:06;;;;;;;4.18;1.15;;;;;;;;;;4840464;29;20428;-66
2021/12/17 02:32:51;;;;;;;7.35;1.67;;;;;;;;;;4876706;29;20049;-67
2021/12/17 02:35:45;;;;;;;2.05;1.27;;;;;;;;;;4830189;29;20525;-67
2021/12/17 02:38:14;;;;;;;3.25;1.40;;;;;;;;;;4885227;29;20056;-67
2021/12/17 02:47:00;;;;;;;3.67;1.40;;;;;;;;;;4876776;29;20057;-67
2021/12/17 02:49:31;;;;;;;3.75;1.92;;;;;;;;;;4843052;29;20457;-67
2021/12/17 02:52:06;;;;;;;2.85;1.50;;;;;;;;;;4884629;29;20062;-69
2021/12/17 02:54:37;;;;;;;4.18;1.70;;;;;;;;;;4930226;29;20431;-66
2021/12/17 02:57:11;;;;;;;3.83;1.60;;;;;;;;;;4918569;29;20108;-66
2021/12/17 02:59:41;;;;;;;3.55;1.50;;;;;;;;;;4914531;29;20056;-70
2021/12/17 03:02:12;;;;;;;2.80;1.42;;;;;;;;;;4914741;29;20074;-69
2021/12/17 03:04:43;;;;;;;3.60;1.60;;;;;;;;;;4904363;29;20061;-70
2021/12/17 03:07:14;;;;;;;4.80;1.65;;;;;;;;;;4896006;29;20064;-67
2021/12/17 03:12:49;;;;;;;6.93;1.50;;;;;;;;;;4933168;29;20048;-67
2021/12/17 03:18:40;;;;;;;4.05;1.65;;;;;;;;;;4916544;29;19945;-68
2021/12/17 03:23:46;;;;;;;5.55;1.80;;;;;;;;;;4949231;29;20193;-68
2021/12/17 03:26:28;;;;;;;11.70;2.00;;;;;;;;;;4937697;29;20054;-72
2021/12/17 03:29:02;;;;;;;11.23;2.08;;;;;;;;;;4889848;29;20048;-67
2021/12/17 03:31:34;;;;;;;9.32;2.17;;;;;;;;;;4904506;29;20064;-67
2021/12/17 03:34:22;;;;;;;3.50;1.90;;;;;;;;;;4908101;29;20063;-69
2021/12/17 03:36:57;;;;;;;8.18;2.00;;;;;;;;;;4938705;29;20080;-67
2021/12/17 03:39:37;;;;;;;6.32;1.85;;;;;;;;;;4932964;29;20508;-67
2021/12/17 03:42:09;;;;;;;8.73;2.05;;;;;;;;;;4918296;29;20056;-73
2021/12/17 03:44:39;;;;;;;;;;;;;;;;;;4910822;29;20049;-67
2021/12/17 03:47:29;;;;;;;8.25;1.88;;;;;;;;;;4867819;29;19981;-68
2021/12/17 03:50:16;;;;;;;6.15;2.22;;;;;;;;;;4933114;29;20166;-67
2021/12/17 03:52:46;;;;;;;7.25;2.05;;;;;;;;;;4951827;29;20043;-67
2021/12/17 03:55:18;;;;;;;8.75;2.00;;;;;;;;;;4952044;29;20581;-68
2021/12/17 03:57:50;;;;;;;6.32;1.77;;;;;;;;;;4951793;29;20046;-67
2021/12/17 04:00:20;;;;;;;8.80;1.92;;;;;;;;;;4951881;29;20067;-67
2021/12/17 04:02:56;;;;;;;9.13;2.28;;;;;;;;;;4966982;28;20054;-67
2021/12/17 04:05:39;;;;;;;15.90;2.30;;;;;;;;;;4921159;29;20128;-71
2021/12/17 04:08:15;;;;;;;16.75;2.40;;;;;;;;;;4932647;29;20535;-71
2021/12/17 04:11:17;;;;;;;8.13;2.05;;;;;;;;;;4907999;29;20060;-70
2021/12/17 04:13:57;;;;;;;7.85;2.20;;;;;;;;;;4936522;29;20043;-67
2021/12/17 04:16:33;;;;;;;7.13;2.90;;;;;;;;;;4932111;29;20444;-67
2021/12/17 04:19:01;;;;;;;7.80;2.05;;;;;;;;;;4929082;29;20052;-67
2021/12/17 04:21:33;;;;;;;;;;;;;;;;;;4919026;29;20056;-69
2021/12/17 04:24:03;;;;;;;8.90;2.30;;;;;;;;;;4878434;29;19947;-69
2021/12/17 04:26:35;;;;;;;10.55;2.53;;;;;;;;;;4913214;29;20408;-67
2021/12/17 04:29:15;;;;;;;10.48;2.38;;;;;;;;;;4913251;29;20056;-67
2021/12/17 04:31:53;;;;;;;5.90;2.63;;;;;;;;;;4912900;29;20044;-67
2021/12/17 04:34:25;;;;;;;6.07;2.60;;;;;;;;;;4931774;29;20436;-69
2021/12/17 04:36:57;;;;;;;6.57;2.30;;;;;;;;;;4947758;28;20059;-67
2021/12/17 04:39:41;;;;;;;5.63;2.30;;;;;;;;;;4929727;29;20058;-68
2021/12/17 04:42:20;;;;;;;5.68;2.38;;;;;;;;;;4931708;29;20055;-67
2021/12/17 04:44:55;;;;;;;4.70;2.35;;;;;;;;;;4931844;29;20092;-67
2021/12/17 04:58:58;;;;;;;5.38;2.33;;;;;;;;;;4868238;29;20072;-68
2021/12/17 05:01:28;;;;;;;8.75;3.03;;;;;;;;;;4856941;29;20423;-67
2021/12/17 05:03:59;;;;;;;5.57;2.22;;;;;;;;;;4856616;29;20084;-68
2021/12/17 05:06:31;;;;;;;4.57;2.33;;;;;;;;;;4856726;29;20057;-67
2021/12/17 05:09:11;;;;;;;8.57;2.70;;;;;;;;;;4868846;29;20068;-67
2021/12/17 05:19:55;;;;;;;6.00;2.38;;;;;;;;;;4909714;28;20063;-67
2021/12/17 05:22:28;;;;;;;5.43;2.67;;;;;;;;;;4967925;28;20054;-68
2021/12/17 05:24:58;;;;;;;8.07;2.80;;;;;;;;;;5000055;28;20054;-67
2021/12/17 05:27:29;;;;;;;9.10;2.70;;;;;;;;;;5008493;28;20057;-68
2021/12/17 05:30:01;;;;;;;10.10;2.53;;;;;;;;;;5008682;28;20050;-68
2021/12/17 05:32:33;;;;;;;7.13;2.55;;;;;;;;;;4979930;28;20049;-70
2021/12/17 05:35:04;;;;;;;3.97;2.53;;;;;;;;;;5050724;28;20052;-67
2021/12/17 05:37:36;;;;;;;;;;;;;;;;;;5052898;28;20057;-68
2021/12/17 05:40:06;;;;;;;7.95;2.95;;;;;;;;;;5052772;28;19921;-68
2021/12/17 05:42:37;;;;;;;6.22;2.95;;;;;;;;;;5012338;28;20425;-68
2021/12/17 05:48:12;;;;;;;;;;;;;;;;;;4897211;29;20517;-68
2021/12/17 05:50:45;;;;;;;8.95;3.33;;;;;;;;;;4862972;29;19935;-67
2021/12/17 05:53:16;;;;;;;3.85;2.13;;;;;;;;;;4841433;29;20081;-68
2021/12/17 05:55:46;;;;;;;6.72;3.13;;;;;;;;;;4861316;29;20062;-68
2021/12/17 05:58:18;;;;;;;6.75;3.05;;;;;;;;;;4896843;29;20052;-67
2021/12/17 06:00:48;;;;;;;5.88;2.60;;;;;;;;;;4878190;29;20065;-67
2021/12/17 06:03:37;;;;;;;6.75;2.80;;;;;;;;;;4878694;29;20049;-68
2021/12/17 06:06:11;;;;;;;4.43;2.47;;;;;;;;;;4843897;29;20058;-67
2021/12/17 06:08:43;;;;;;;7.55;2.60;;;;;;;;;;4875050;29;20449;-70
2021/12/17 06:11:14;;;;;;;4.22;2.78;;;;;;;;;;4895380;29;20064;-68
2021/12/17 06:13:44;;;;;;;8.80;2.83;;;;;;;;;;4915080;29;20052;-67
2021/12/17 06:16:16;;;;;;;5.93;3.25;;;;;;;;;;4915605;29;20547;-67
2021/12/17 06:18:47;;;;;;;3.95;2.42;;;;;;;;;;4877470;29;20053;-67
2021/12/17 06:21:19;;;;;;;4.97;2.55;;;;;;;;;;4858990;29;20065;-67
2021/12/17 06:23:49;;;;;;;5.00;2.80;;;;;;;;;;4859171;29;20050;-67
2021/12/17 06:26:20;;;;;;;6.93;3.10;;;;;;;;;;4839580;29;20061;-67
2021/12/17 06:28:53;;;;;;;7.85;2.75;;;;;;;;;;4854337;29;20054;-67
2021/12/17 06:31:26;;;;;;;8.20;3.00;;;;;;;;;;4840848;29;20061;-67
2021/12/17 06:33:57;;;;;;;8.30;2.80;;;;;;;;;;4858764;29;20513;-68
2021/12/17 06:36:28;;;;;;;6.72;3.10;;;;;;;;;;4874169;29;20403;-67
2021/12/17 06:38:59;;;;;;;4.55;2.75;;;;;;;;;;4864390;29;20068;-67
2021/12/17 06:41:34;;;;;;;4.03;2.70;;;;;;;;;;4836431;29;20066;-67
2021/12/17 06:44:07;;;;;;;8.80;3.13;;;;;;;;;;4822084;29;20062;-71
2021/12/17 06:49:42;;;;;;;4.43;2.65;;;;;;;;;;4858829;29;20072;-68
2021/12/17 07:10:45;;;;;;;5.20;2.63;;;;;;;;;;4969844;28;20074;-68
2021/12/17 07:33:43;;;;;;;7.70;3.33;;;;;;;;;;4895188;29;20916;-67
2021/12/17 07:36:42;;;;;;;8.65;3.13;;;;;;;;;;4895078;29;20584;-67
2021/12/17 07:39:16;;;;;;;7.38;2.65;;;;;;;;;;4895143;29;20052;-67
2021/12/17 07:41:56;;;;;;;6.10;3.30;;;;;;;;;;4895217;29;20057;-67
2021/12/17 07:44:44;;;;;;;4.68;2.97;;;;;;;;;;4895546;29;20061;-70
2021/12/17 07:47:38;;;;;;;8.55;3.33;;;;;;;;;;4875077;29;20068;-67
2021/12/17 07:50:09;;;;;;;8.18;3.63;;;;;;;;;;4855542;29;20065;-70
2021/12/17 07:52:59;;;;;;;7.72;3.33;;;;;;;;;;4842109;29;20111;-67
2021/12/17 07:55:32;;;;;;;6.07;2.83;;;;;;;;;;4856634;29;20392;-69
2021/12/17 07:58:07;;;;;;;6.07;3.20;;;;;;;;;;4862245;29;20060;-67
2021/12/17 08:00:40;;;;;;;5.80;2.95;;;;;;;;;;4877901;29;20045;-67
2021/12/17 08:03:14;;;;;;;7.72;3.10;;;;;;;;;;4875816;29;20064;-68
2021/12/17 08:06:10;;;;;;;6.63;3.40;;;;;;;;;;4857284;29;20057;-71
2021/12/17 08:09:00;;;;;;;5.25;3.00;;;;;;;;;;4839278;29;20415;-68
2021/12/17 08:11:37;;;;;;;9.43;3.05;;;;;;;;;;4902417;29;20060;-68
2021/12/17 08:14:13;;;;;;;6.93;3.13;;;;;;;;;;4930792;29;20058;-68
2021/12/17 08:16:53;;;;;;;5.13;2.90;;;;;;;;;;4932513;29;20048;-68
2021/12/17 08:26:03;;;;;;;5.38;3.28;;;;;;;;;;4913058;29;20067;-68
2021/12/17 08:28:53;;;;;;;6.28;3.50;;;;;;;;;;4912455;29;20060;-68
2021/12/17 08:31:27;;;;;;;8.48;3.20;;;;;;;;;;4912781;29;20417;-68
2021/12/17 08:33:59;;;;;;;8.73;3.47;;;;;;;;;;4916370;29;20425;-69
2021/12/17 08:36:31;;;;;;;7.10;3.03;;;;;;;;;;4884468;29;20501;-68
2021/12/17 08:39:03;;;;;;;5.75;2.70;;;;;;;;;;4879448;29;20052;-68
2021/12/17 08:41:49;;;;;;;8.50;3.30;;;;;;;;;;4945913;29;20047;-68
2021/12/17 08:44:23;;;;;;;6.20;3.08;;;;;;;;;;4912535;29;20055;-68
2021/12/17 08:47:16;;;;;;;7.40;3.30;;;;;;;;;;4932151;29;20051;-68
2021/12/17 08:49:48;;;;;;;8.05;3.10;;;;;;;;;;4884839;29;20048;-68
2021/12/17 08:52:22;;;;;;;8.15;2.88;;;;;;;;;;4950709;29;20066;-68
2021/12/17 08:54:53;;;;;;;6.20;3.15;;;;;;;;;;4896489;29;20056;-67
2021/12/17 08:57:24;;;;;;;9.98;3.88;;;;;;;;;;4896431;29;20382;-69
2021/12/17 08:59:57;;;;;;;7.90;3.13;;;;;;;;;;4871906;29;20052;-72
2021/12/17 09:02:41;;;;;;;5.53;3.35;;;;;;;;;;4912515;29;20166;-69
2021/12/17 09:05:37;;;;;;;5.63;3.15;;;;;;;;;;4893853;29;20556;-68
2021/12/17 09:08:11;;;;;;;9.90;3.65;;;;;;;;;;4893155;29;20060;-67
2021/12/17 09:10:47;;;;;;;6.93;2.75;;;;;;;;;;4866287;29;20064;-69
2021/12/17 09:13:21;;;;;;;6.75;3.30;;;;;;;;;;4859716;29;20065;-69
2021/12/17 09:15:56;;;;;;;8.18;3.40;;;;;;;;;;4832634;29;20061;-67
2021/12/17 09:18:36;;;;;;;6.45;3.03;;;;;;;;;;4842117;29;20105;-67
2021/12/17 09:21:44;;;;;;;8.48;3.03;;;;;;;;;;4798940;29;20507;-67
2021/12/17 09:24:19;;;;;;;6.60;2.83;;;;;;;;;;4793518;29;20065;-68
2021/12/17 09:27:19;;;;;;;6.18;3.30;;;;;;;;;;4777953;29;20381;-68
2021/12/17 09:30:10;;;;;;;6.95;3.13;;;;;;;;;;4790488;29;20075;-68
2021/12/17 09:32:41;;;;;;;7.45;3.20;;;;;;;;;;4818355;29;20081;-68
2021/12/17 09:35:16;;;;;;;10.50;3.20;;;;;;;;;;4818257;29;20054;-69
2021/12/17 09:37:47;;;;;;;8.23;2.95;;;;;;;;;;4816280;29;20507;-72
2021/12/17 09:40:18;;;;;;;8.65;3.50;;;;;;;;;;4795966;29;20086;-67
2021/12/17 09:42:49;;;;;;;5.93;3.47;;;;;;;;;;4837300;29;20053;-67
2021/12/17 09:45:20;;;;;;;9.50;3.58;;;;;;;;;;4874636;29;20071;-70
2021/12/17 09:47:51;;;;;;;11.57;3.67;;;;;;;;;;4874991;29;20076;-70
2021/12/17 09:50:22;;;;;;;12.25;3.38;;;;;;;;;;4888633;29;20066;-67
2021/12/17 09:52:53;;;;;;;12.48;3.13;;;;;;;;;;4966514;28;20057;-67
2021/12/17 09:55:25;;;;;;;7.75;3.50;;;;;;;;;;5012315;28;20215;-67
2021/12/17 09:57:57;;;;;;;6.47;3.20;;;;;;;;;;5028558;28;20460;-67
2021/12/17 10:00:28;;;;;;;11.48;3.45;;;;;;;;;;4988647;28;20057;-67
2021/12/17 10:03:01;;;;;;;10.55;3.33;;;;;;;;;;5025145;28;20415;-70
2021/12/17 10:05:34;;;;;;;7.90;3.08;;;;;;;;;;5028377;28;20065;-67
2021/12/17 10:08:11;;;;;;;10.98;3.20;;;;;;;;;;4997241;28;20062;-67
2021/12/17 10:11:03;;;;;;;7.57;3.30;;;;;;;;;;4969171;28;20055;-68
2021/12/17 10:13:35;;;;;;;8.75;3.53;;;;;;;;;;4914787;29;20056;-67
2021/12/17 10:16:08;;;;;;;8.15;4.00;;;;;;;;;;4916851;29;20217;-67
2021/12/17 10:18:41;;;;;;;6.40;3.72;;;;;;;;;;4892765;29;20064;-68
2021/12/17 10:21:23;;;;;;;7.50;3.72;;;;;;;;;;4863004;29;20061;-67
2021/12/17 10:23:56;;;;;;;9.25;3.58;;;;;;;;;;4923802;29;20067;-67
2021/12/17 10:26:28;;;;;;;9.35;3.72;;;;;;;;;;4934693;29;20067;-68
2021/12/17 10:29:06;;;;;;;8.20;4.25;;;;;;;;;;4877621;29;20064;-68
2021/12/17 10:31:38;;;;;;;8.93;4.38;;;;;;;;;;4877821;29;20143;-68
2021/12/17 10:34:18;;;;;;;6.82;3.22;;;;;;;;;;4877784;29;20056;-67
2021/12/17 10:36:48;;;;;;;8.15;3.28;;;;;;;;;;4877431;29;20087;-67
2021/12/17 10:39:21;;;;;;;5.10;3.08;;;;;;;;;;4862399;29;20060;-66
2021/12/17 10:41:52;;;;;;;7.60;3.15;;;;;;;;;;4892727;29;20057;-66
2021/12/17 10:44:23;;;;;;;6.28;3.60;;;;;;;;;;4858890;29;20526;-67
2021/12/17 10:47:17;;;;;;;14.00;3.85;;;;;;;;;;4877124;29;20534;-67
2021/12/17 10:49:55;;;;;;;7.72;3.53;;;;;;;;;;4880602;29;20629;-66
2021/12/17 10:52:36;;;;;;;7.63;3.42;;;;;;;;;;4915392;29;20052;-68
2021/12/17 10:55:09;;;;;;;9.10;3.13;;;;;;;;;;4927066;28;20063;-70
2021/12/17 10:57:42;;;;;;;7.88;3.28;;;;;;;;;;4939823;29;20066;-66
2021/12/17 11:00:16;;;;;;;10.10;3.88;;;;;;;;;;4933770;29;20052;-66
2021/12/17 11:02:55;;;;;;;9.30;3.38;;;;;;;;;;4971472;28;20054;-70
2021/12/17 11:05:34;;;;;;;6.50;3.78;;;;;;;;;;4972564;28;20061;-65
2021/12/17 11:08:19;;;;;;;9.70;3.47;;;;;;;;;;5030011;28;20545;-67
2021/12/17 11:10:56;;;;;;;8.98;3.55;;;;;;;;;;5029237;28;20041;-66
2021/12/17 11:13:27;;;;;;;7.00;3.05;;;;;;;;;;4992462;28;20565;-67
2021/12/17 11:15:59;;;;;;;7.40;3.30;;;;;;;;;;4994130;28;20057;-66
2021/12/17 11:18:30;;;;;;;5.55;3.33;;;;;;;;;;4983725;28;20083;-68
2021/12/17 11:21:00;;;;;;;8.80;3.33;;;;;;;;;;4952865;28;20065;-66
2021/12/17 11:23:32;;;;;;;6.15;3.33;;;;;;;;;;4971509;28;20058;-66
2021/12/17 11:26:03;;;;;;;6.60;4.15;;;;;;;;;;4971422;28;20454;-66
2021/12/17 11:28:34;;;;;;;7.85;3.78;;;;;;;;;;4919959;29;20043;-66
2021/12/17 11:31:04;;;;;;;7.68;3.90;;;;;;;;;;4951976;29;20427;-65
2021/12/17 11:33:36;;;;;;;10.35;3.40;;;;;;;;;;4952549;28;20055;-65
2021/12/17 11:36:07;;;;;;;6.30;3.83;;;;;;;;;;4972160;28;20475;-66
2021/12/17 11:39:26;;;;;;;9.32;3.50;;;;;;;;;;5003163;28;20077;-66
2021/12/17 11:41:59;;;;;;;7.65;3.45;;;;;;;;;;4900483;29;20060;-66
2021/12/17 11:44:40;;;;;;;10.60;3.17;;;;;;;;;;4900038;29;20052;-68
2021/12/17 11:47:12;;;;;;;5.90;3.60;;;;;;;;;;4855696;29;20084;-65
2021/12/17 11:49:52;;;;;;;9.35;3.47;;;;;;;;;;4876274;29;20098;-67
2021/12/17 11:52:42;;;;;;;16.73;8.05;;;;;;;;;;4899249;29;20077;-66
2021/12/17 11:55:22;;;;;;;16.60;8.90;;;;;;;;;;4908281;29;20067;-67
2021/12/17 11:58:00;;;;;;;6.78;3.10;;;;;;;;;;4902425;29;20044;-68
2021/12/17 12:00:48;;;;;;;8.20;3.40;;;;;;;;;;4902355;29;20052;-65
2021/12/17 12:03:21;;;;;;;5.15;2.95;;;;;;;;;;4902686;29;20060;-66
2021/12/17 12:05:59;;;;;;;6.80;3.17;;;;;;;;;;4910915;29;20056;-66
2021/12/17 12:08:50;;;;;;;6.07;2.78;;;;;;;;;;4932656;29;20531;-65
2021/12/17 12:11:26;;;;;;;8.10;3.30;;;;;;;;;;4898529;29;20060;-65
2021/12/17 12:13:57;;;;;;;8.23;3.22;;;;;;;;;;4920327;29;20059;-64
2021/12/17 12:16:30;;;;;;;6.32;3.13;;;;;;;;;;4991470;28;20058;-64
2021/12/17 12:19:08;;;;;;;6.15;2.92;;;;;;;;;;5015220;28;20528;-65
2021/12/17 12:21:42;;;;;;;5.53;2.40;;;;;;;;;;4957803;28;20057;-68
2021/12/17 12:24:14;;;;;;;4.78;2.70;;;;;;;;;;4942329;28;20059;-66
2021/12/17 12:26:51;;;;;;;6.38;2.45;;;;;;;;;;5001953;28;20054;-67
2021/12/17 12:29:24;;;;;;;6.07;3.00;;;;;;;;;;4990234;28;20054;-67
2021/12/17 12:32:18;;;;;;;6.38;2.75;;;;;;;;;;4953097;28;20436;-65
2021/12/17 12:34:49;;;;;;;6.40;2.35;;;;;;;;;;4974866;28;20054;-66
2021/12/17 12:37:28;;;;;;;10.15;3.58;;;;;;;;;;4989623;28;20414;-66
2021/12/17 12:40:00;;;;;;;4.47;2.60;;;;;;;;;;4976343;28;20076;-66
2021/12/17 12:42:33;;;;;;;6.90;2.58;;;;;;;;;;4998287;28;20061;-65
2021/12/17 12:45:05;;;;;;;3.95;2.45;;;;;;;;;;4999296;28;20474;-65
2021/12/17 12:47:51;;;;;;;6.00;2.30;;;;;;;;;;4991316;28;20069;-66
2021/12/17 12:50:25;;;;;;;4.93;2.60;;;;;;;;;;4990131;28;20062;-65
2021/12/17 12:53:11;;;;;;;5.43;2.30;;;;;;;;;;4931922;29;20062;-64
2021/12/17 12:55:48;;;;;;;5.15;2.10;;;;;;;;;;4932032;28;20070;-64
2021/12/17 12:58:29;;;;;;;4.78;2.40;;;;;;;;;;4881212;29;20048;-67
2021/12/17 13:01:02;;;;;;;5.88;2.30;;;;;;;;;;4928013;28;20063;-65
2021/12/17 13:03:37;;;;;;;4.28;2.20;;;;;;;;;;4951206;28;20055;-64
2021/12/17 13:06:15;;;;;;;5.18;2.40;;;;;;;;;;4957608;28;20418;-65
2021/12/17 13:08:55;;;;;;;6.13;2.30;;;;;;;;;;4969975;28;20059;-66
2021/12/17 13:11:28;;;;;;;4.55;2.25;;;;;;;;;;4966327;28;20051;-66
2021/12/17 13:14:08;;;;;;;5.22;2.38;;;;;;;;;;4950720;29;20055;-66
2021/12/17 13:16:55;;;;;;;5.88;2.60;;;;;;;;;;4950486;29;20059;-66
2021/12/17 13:22:31;;;;;;;9.07;6.03;;;;;;;;;;4969698;28;20685;-64
2021/12/17 13:25:02;;;;;;;5.35;2.30;;;;;;;;;;4915276;29;20059;-65
2021/12/17 13:27:32;;;;;;;4.03;2.35;;;;;;;;;;4874579;29;20049;-64
2021/12/17 13:30:03;;;;;;;4.57;2.60;;;;;;;;;;4874963;29;20453;-65
2021/12/17 13:32:34;;;;;;;8.10;2.35;;;;;;;;;;4874944;29;20056;-66
2021/12/17 13:35:05;;;;;;;5.30;2.00;;;;;;;;;;4875112;29;20056;-66
2021/12/17 13:37:36;;;;;;;6.20;3.33;;;;;;;;;;4890085;29;20061;-65
2021/12/17 13:40:09;;;;;;;;;;;;;;;;;;4875306;29;20080;-65
2021/12/17 13:42:43;;;;;;;6.53;2.60;;;;;;;;;;4874866;29;19924;-65
2021/12/17 13:45:16;;;;;;;4.97;2.25;;;;;;;;;;4912459;29;20052;-66
2021/12/17 13:47:50;;;;;;;5.72;2.55;;;;;;;;;;4912257;29;20052;-66
2021/12/17 13:50:31;;;;;;;5.50;2.15;;;;;;;;;;4912420;29;20572;-65
2021/12/17 13:53:04;;;;;;;4.25;2.33;;;;;;;;;;4912643;29;20060;-65
2021/12/17 13:55:43;;;;;;;6.05;2.65;;;;;;;;;;4931465;29;20562;-65
2021/12/17 13:58:20;;;;;;;4.13;1.92;;;;;;;;;;4919032;29;20063;-66
2021/12/17 14:00:54;;;;;;;7.05;2.20;;;;;;;;;;4935069;29;20056;-66
2021/12/17 14:03:32;;;;;;;3.85;2.63;;;;;;;;;;4966013;28;20458;-65
2021/12/17 14:06:28;;;;;;;11.25;2.70;;;;;;;;;;4954770;28;20412;-65
2021/12/17 14:08:53;;;;;;;5.88;1.95;;;;;;;;;;4973339;28;20065;-65
2021/12/17 14:11:27;;;;;;;6.57;2.00;;;;;;;;;;4973333;28;20062;-66
2021/12/17 14:14:28;;;;;;;9.20;2.47;;;;;;;;;;4972996;28;20090;-65
2021/12/17 14:17:01;;;;;;;7.85;2.17;;;;;;;;;;4973273;28;20058;-65
2021/12/17 14:19:46;;;;;;;5.97;2.35;;;;;;;;;;4973340;28;20070;-66
2021/12/17 14:22:29;;;;;;;4.00;1.88;;;;;;;;;;4963442;28;20046;-64
2021/12/17 14:25:00;;;;;;;5.45;2.30;;;;;;;;;;4992067;28;20053;-65
2021/12/17 14:27:44;;;;;;;4.20;2.60;;;;;;;;;;4993339;28;20418;-68
2021/12/17 14:30:15;;;;;;;4.68;2.00;;;;;;;;;;4994766;28;20536;-68
2021/12/17 14:32:47;;;;;;;4.60;2.05;;;;;;;;;;4963283;28;20100;-66
2021/12/17 14:35:42;;;;;;;4.53;2.10;;;;;;;;;;4929064;28;20058;-65
2021/12/17 14:38:13;;;;;;;7.28;2.10;;;;;;;;;;4969916;28;20057;-66
2021/12/17 14:40:53;;;;;;;5.88;2.50;;;;;;;;;;4955966;28;20043;-65
2021/12/17 14:43:28;;;;;;;8.02;2.63;;;;;;;;;;4956406;28;20042;-64
2021/12/17 14:46:13;;;;;;;6.43;2.40;;;;;;;;;;4954770;28;20059;-65
2021/12/17 14:49:07;;;;;;;5.20;2.22;;;;;;;;;;4972165;28;20553;-66
2021/12/17 15:02:53;;;;;;;8.30;2.50;;;;;;;;;;4982722;28;20450;-65
2021/12/17 15:05:28;;;;;;;6.82;2.20;;;;;;;;;;4991749;28;20046;-66
2021/12/17 15:08:01;;;;;;;8.90;2.17;;;;;;;;;;4991290;28;20069;-65
2021/12/17 15:10:31;;;;;;;6.38;2.10;;;;;;;;;;4991663;28;20127;-66
2021/12/17 15:13:02;;;;;;;4.72;2.10;;;;;;;;;;4976060;28;20072;-74
2021/12/17 15:15:36;;;;;;;5.95;2.38;;;;;;;;;;5013242;28;20057;-65
2021/12/17 15:18:15;;;;;;;6.32;2.35;;;;;;;;;;5050974;28;20397;-64
2021/12/17 15:20:48;;;;;;;4.18;2.10;;;;;;;;;;5050826;28;20535;-64
2021/12/17 15:23:20;;;;;;;11.23;2.33;;;;;;;;;;5050989;28;20517;-65
2021/12/17 15:25:53;;;;;;;6.32;1.92;;;;;;;;;;5050788;28;20067;-65
2021/12/17 15:28:27;;;;;;;4.18;2.67;;;;;;;;;;5050705;28;20072;-65
2021/12/17 15:31:02;;;;;;;3.95;2.10;;;;;;;;;;5050459;28;20045;-65
2021/12/17 15:33:36;;;;;;;4.55;2.40;;;;;;;;;;5050793;28;20053;-65
2021/12/17 15:36:09;;;;;;;8.00;2.22;;;;;;;;;;5014159;28;20053;-70
2021/12/17 15:38:39;;;;;;;4.70;2.15;;;;;;;;;;5030658;28;20069;-65
2021/12/17 15:41:09;;;;;;;4.70;2.42;;;;;;;;;;5014360;28;20096;-66
2021/12/17 15:43:40;;;;;;;4.38;2.20;;;;;;;;;;5010407;28;20619;-67
2021/12/17 15:46:10;;;;;;;5.13;2.00;;;;;;;;;;5010532;28;20065;-66
2021/12/17 15:48:40;;;;;;;6.45;2.13;;;;;;;;;;5010547;28;20069;-66
2021/12/17 15:51:10;;;;;;;4.25;1.90;;;;;;;;;;5030315;28;20049;-64
2021/12/17 15:53:42;;;;;;;4.75;2.05;;;;;;;;;;5030269;28;20057;-64
2021/12/17 15:56:12;;;;;;;4.28;2.08;;;;;;;;;;5030309;28;20049;-64
2021/12/17 15:58:44;;;;;;;6.13;2.58;;;;;;;;;;4961691;28;20178;-65
2021/12/17 16:01:15;;;;;;;6.25;1.92;;;;;;;;;;4951795;29;20087;-64
2021/12/17 16:03:47;;;;;;;5.00;2.03;;;;;;;;;;4951805;29;20058;-65
2021/12/17 16:06:18;;;;;;;5.85;1.90;;;;;;;;;;4952102;29;20083;-64
2021/12/17 16:08:54;;;;;;;5.90;3.08;;;;;;;;;;4951908;29;20522;-65
2021/12/17 16:22:07;;;;;;;5.82;2.20;;;;;;;;;;4920077;29;20060;-66
2021/12/17 16:24:37;;;;;;;9.45;1.90;;;;;;;;;;4913551;29;20560;-66
2021/12/17 16:27:08;;;;;;;4.90;2.22;;;;;;;;;;4913598;29;20056;-65
2021/12/17 16:29:39;;;;;;;4.25;1.73;;;;;;;;;;4913145;29;20066;-68
2021/12/17 16:32:09;;;;;;;7.05;1.90;;;;;;;;;;4932461;29;20067;-66
2021/12/17 16:34:40;;;;;;;3.15;2.03;;;;;;;;;;4900854;29;20055;-66
2021/12/17 16:37:10;;;;;;;5.28;1.75;;;;;;;;;;4947688;29;20062;-64
2021/12/17 16:39:41;;;;;;;7.55;2.22;;;;;;;;;;4982854;28;20058;-64
2021/12/17 16:42:16;;;;;;;4.68;1.80;;;;;;;;;;4958050;28;20058;-65
2021/12/17 16:47:30;;;;;;;3.53;1.92;;;;;;;;;;4957431;28;20077;-65
2021/12/17 16:50:04;;;;;;;4.18;2.10;;;;;;;;;;4973847;28;20066;-64
2021/12/17 16:52:35;;;;;;;2.90;2.00;;;;;;;;;;4978769;28;20050;-62
2021/12/17 16:55:25;;;;;;;6.03;2.05;;;;;;;;;;5009565;28;20053;-67
2021/12/17 16:57:56;;;;;;;3.33;1.92;;;;;;;;;;4970193;28;20499;-64
2021/12/17 17:00:31;;;;;;;4.50;2.53;;;;;;;;;;4970327;28;20054;-63
2021/12/17 17:03:03;;;;;;;4.25;2.00;;;;;;;;;;4986481;28;20539;-66
2021/12/17 17:05:34;;;;;;;5.05;2.08;;;;;;;;;;4989825;28;20089;-67
2021/12/17 17:08:04;;;;;;;3.92;1.92;;;;;;;;;;5008656;28;20049;-66
2021/12/17 17:10:35;;;;;;;4.57;2.20;;;;;;;;;;5009359;28;20061;-64
2021/12/17 17:13:05;;;;;;;5.85;2.38;;;;;;;;;;4976353;28;20054;-64
2021/12/17 17:15:36;;;;;;;4.70;2.33;;;;;;;;;;5025586;28;20425;-64
2021/12/17 17:18:08;;;;;;;6.28;2.10;;;;;;;;;;4996203;28;20499;-64
2021/12/17 17:20:38;;;;;;;5.65;1.75;;;;;;;;;;4989590;28;20055;-63
2021/12/17 17:23:09;;;;;;;7.97;2.03;;;;;;;;;;4989566;28;20502;-64
2021/12/17 17:25:40;;;;;;;4.50;1.90;;;;;;;;;;4973110;28;20054;-65
2021/12/17 17:28:10;;;;;;;3.10;1.85;;;;;;;;;;4989170;28;20051;-67
2021/12/17 17:30:41;;;;;;;4.75;1.90;;;;;;;;;;4989333;28;20054;-65
2021/12/17 17:33:12;;;;;;;4.78;1.77;;;;;;;;;;4988619;28;20062;-66
2021/12/17 17:35:42;;;;;;;4.43;1.70;;;;;;;;;;4972890;28;20058;-63
2021/12/17 17:38:13;;;;;;;5.53;1.90;;;;;;;;;;4987979;28;20058;-63
2021/12/17 17:40:43;;;;;;;4.22;1.60;;;;;;;;;;4970058;28;20058;-65
2021/12/17 17:43:15;;;;;;;8.70;1.98;;;;;;;;;;4918536;28;20078;-70
2021/12/17 17:45:46;;;;;;;3.45;1.48;;;;;;;;;;4955081;28;20505;-64
2021/12/17 17:48:17;;;;;;;4.55;1.58;;;;;;;;;;4989380;28;20509;-67
2021/12/17 17:50:48;;;;;;;5.55;2.53;;;;;;;;;;4989301;28;20397;-64
2021/12/17 17:53:18;;;;;;;6.88;1.70;;;;;;;;;;4989216;28;20494;-68
2021/12/17 17:55:48;;;;;;;4.55;1.67;;;;;;;;;;4989516;28;20815;-64
2021/12/17 17:58:18;;;;;;;3.10;1.55;;;;;;;;;;4940809;28;20069;-65
2021/12/17 18:00:49;;;;;;;4.72;1.67;;;;;;;;;;4989137;28;20051;-68
2021/12/17 18:03:20;;;;;;;5.28;1.60;;;;;;;;;;4950272;29;20055;-65
2021/12/17 18:05:50;;;;;;;3.10;1.52;;;;;;;;;;4951593;28;20050;-64
2021/12/17 18:08:21;;;;;;;2.90;1.75;;;;;;;;;;4937538;28;20055;-67
2021/12/17 18:10:53;;;;;;;2.22;1.33;;;;;;;;;;4989679;28;20065;-64
2021/12/17 18:13:26;;;;;;;8.20;1.70;;;;;;;;;;5008786;28;20050;-63
2021/12/17 18:15:59;;;;;;;5.93;1.83;;;;;;;;;;4992921;28;20054;-64
2021/12/17 18:18:29;;;;;;;5.68;1.38;;;;;;;;;;5008425;28;20049;-68
2021/12/17 18:21:01;;;;;;;4.78;1.65;;;;;;;;;;5008600;28;20053;-65
2021/12/17 18:23:32;;;;;;;3.38;1.60;;;;;;;;;;5008660;28;20418;-64
2021/12/17 18:26:03;;;;;;;3.53;1.67;;;;;;;;;;4992588;28;20053;-65
2021/12/17 18:28:33;;;;;;;2.88;1.65;;;;;;;;;;5008003;28;20054;-66
2021/12/17 18:31:04;;;;;;;3.50;1.67;;;;;;;;;;5008417;28;20058;-62
2021/12/17 18:33:34;;;;;;;6.95;1.90;;;;;;;;;;4968873;28;20088;-63
2021/12/17 18:36:05;;;;;;;4.38;1.80;;;;;;;;;;4971653;28;20530;-65
2021/12/17 18:38:36;;;;;;;4.85;1.92;;;;;;;;;;4957347;28;20445;-64
2021/12/17 18:41:10;;;;;;;;;;;;;;;;;;4973380;28;20081;-63
2021/12/17 18:46:29;;;;;;;4.63;2.08;;;;;;;;;;4992628;28;20054;-62
2021/12/17 18:48:59;;;;;;;5.47;1.90;;;;;;;;;;4933949;29;20090;-62
2021/12/17 18:51:30;;;;;;;2.83;1.92;;;;;;;;;;4934321;29;20567;-66
2021/12/17 18:54:00;;;;;;;4.97;1.83;;;;;;;;;;4934234;29;20059;-65
2021/12/17 18:56:31;;;;;;;5.68;1.63;;;;;;;;;;4934201;29;20047;-66